sensor_id;sensor_type;location;lat;lon;timestamp;temperature;humidity
6740;DHT22;3407;49.882;10.920;2022-10-31T00:03:40;9.80;63.90
6740;DHT22;3407;49.882;10.920;2022-10-31T00:08:35;9.90;65.80
6740;DHT22;3407;49.882;10.920;2022-10-31T00:13:31;9.80;65.70
6740;DHT22;3407;49.882;10.920;2022-10-31T00:18:26;9.80;64.80
6740;DHT22;3407;49.882;10.920;2022-10-31T00:23:22;9.80;68.60
6740;DHT22;3407;49.882;10.920;2022-10-31T00:28:17;9.80;68.60
6740;DHT22;3407;49.882;10.920;2022-10-31T00:33:13;9.80;67.50
6740;DHT22;3407;49.882;10.920;2022-10-31T00:38:08;9.80;67.20
6740;DHT22;3407;49.882;10.920;2022-10-31T00:43:04;9.80;68.20
6740;DHT22;3407;49.882;10.920;2022-10-31T00:47:59;9.70;65.50
6740;DHT22;3407;49.882;10.920;2022-10-31T00:52:55;9.70;59.50
6740;DHT22;3407;49.882;10.920;2022-10-31T00:57:50;9.70;61.50
6740;DHT22;3407;49.882;10.920;2022-10-31T01:02:46;9.70;63.10
6740;DHT22;3407;49.882;10.920;2022-10-31T01:07:42;9.70;61.00
6740;DHT22;3407;49.882;10.920;2022-10-31T01:12:42;9.70;60.70
6740;DHT22;3407;49.882;10.920;2022-10-31T01:17:39;9.60;58.50
6740;DHT22;3407;49.882;10.920;2022-10-31T01:22:34;9.60;64.40
6740;DHT22;3407;49.882;10.920;2022-10-31T01:27:31;9.70;71.70
6740;DHT22;3407;49.882;10.920;2022-10-31T01:32:27;9.80;72.60
6740;DHT22;3407;49.882;10.920;2022-10-31T01:37:26;9.80;75.00
6740;DHT22;3407;49.882;10.920;2022-10-31T01:42:22;10.00;79.30
6740;DHT22;3407;49.882;10.920;2022-10-31T01:47:31;10.00;78.40
6740;DHT22;3407;49.882;10.920;2022-10-31T01:52:33;10.00;76.20
6740;DHT22;3407;49.882;10.920;2022-10-31T01:57:33;9.90;77.10
6740;DHT22;3407;49.882;10.920;2022-10-31T02:02:30;9.80;77.20
6740;DHT22;3407;49.882;10.920;2022-10-31T02:07:39;9.70;77.70
6740;DHT22;3407;49.882;10.920;2022-10-31T02:12:38;9.80;79.50
6740;DHT22;3407;49.882;10.920;2022-10-31T02:17:34;9.70;76.10
6740;DHT22;3407;49.882;10.920;2022-10-31T02:33:15;9.60;80.80
6740;DHT22;3407;49.882;10.920;2022-10-31T02:43:49;9.80;81.90
6740;DHT22;3407;49.882;10.920;2022-10-31T02:48:51;9.80;82.30
6740;DHT22;3407;49.882;10.920;2022-10-31T02:53:48;9.90;82.70
6740;DHT22;3407;49.882;10.920;2022-10-31T02:58:49;9.90;82.90
6740;DHT22;3407;49.882;10.920;2022-10-31T03:09:24;10.00;85.10
6740;DHT22;3407;49.882;10.920;2022-10-31T03:14:41;10.00;84.20
6740;DHT22;3407;49.882;10.920;2022-10-31T03:19:40;9.90;80.10
6740;DHT22;3407;49.882;10.920;2022-10-31T03:24:38;9.80;75.90
6740;DHT22;3407;49.882;10.920;2022-10-31T03:29:36;9.80;78.00
6740;DHT22;3407;49.882;10.920;2022-10-31T03:34:35;9.80;78.50
6740;DHT22;3407;49.882;10.920;2022-10-31T03:39:32;9.80;79.00
6740;DHT22;3407;49.882;10.920;2022-10-31T03:44:29;9.60;79.00
6740;DHT22;3407;49.882;10.920;2022-10-31T03:49:26;9.70;82.70
6740;DHT22;3407;49.882;10.920;2022-10-31T03:59:39;9.60;82.30
6740;DHT22;3407;49.882;10.920;2022-10-31T04:04:37;9.60;82.30
6740;DHT22;3407;49.882;10.920;2022-10-31T04:09:35;9.60;83.90
6740;DHT22;3407;49.882;10.920;2022-10-31T04:14:32;9.60;84.40
6740;DHT22;3407;49.882;10.920;2022-10-31T04:19:29;9.60;83.40
6740;DHT22;3407;49.882;10.920;2022-10-31T04:24:25;9.50;82.20
6740;DHT22;3407;49.882;10.920;2022-10-31T04:29:20;9.50;82.20
6740;DHT22;3407;49.882;10.920;2022-10-31T04:34:16;9.50;83.10
6740;DHT22;3407;49.882;10.920;2022-10-31T04:39:11;9.50;84.00
6740;DHT22;3407;49.882;10.920;2022-10-31T04:44:07;9.40;83.60
6740;DHT22;3407;49.882;10.920;2022-10-31T04:49:02;9.40;86.10
6740;DHT22;3407;49.882;10.920;2022-10-31T04:53:58;9.60;88.60
6740;DHT22;3407;49.882;10.920;2022-10-31T04:58:53;9.60;90.20
6740;DHT22;3407;49.882;10.920;2022-10-31T05:03:49;9.80;91.10
6740;DHT22;3407;49.882;10.920;2022-10-31T05:08:44;9.70;90.70
6740;DHT22;3407;49.882;10.920;2022-10-31T05:13:40;9.70;90.60
6740;DHT22;3407;49.882;10.920;2022-10-31T05:18:35;9.90;91.60
6740;DHT22;3407;49.882;10.920;2022-10-31T05:23:31;10.00;91.40
6740;DHT22;3407;49.882;10.920;2022-10-31T05:28:26;9.90;91.60
6740;DHT22;3407;49.882;10.920;2022-10-31T05:33:22;9.90;91.20
6740;DHT22;3407;49.882;10.920;2022-10-31T05:38:18;9.90;91.90
6740;DHT22;3407;49.882;10.920;2022-10-31T05:43:13;10.00;91.70
6740;DHT22;3407;49.882;10.920;2022-10-31T05:48:09;10.10;92.00
6740;DHT22;3407;49.882;10.920;2022-10-31T05:53:05;10.20;92.20
6740;DHT22;3407;49.882;10.920;2022-10-31T05:58:00;10.20;92.30
6740;DHT22;3407;49.882;10.920;2022-10-31T06:03:00;10.30;92.60
6740;DHT22;3407;49.882;10.920;2022-10-31T06:07:56;10.30;92.20
6740;DHT22;3407;49.882;10.920;2022-10-31T06:12:52;10.30;92.20
6740;DHT22;3407;49.882;10.920;2022-10-31T06:17:57;10.40;92.50
6740;DHT22;3407;49.882;10.920;2022-10-31T06:22:53;10.50;92.60
6740;DHT22;3407;49.882;10.920;2022-10-31T06:27:48;10.50;92.50
6740;DHT22;3407;49.882;10.920;2022-10-31T06:32:44;10.60;92.60
6740;DHT22;3407;49.882;10.920;2022-10-31T06:37:39;10.70;92.90
6740;DHT22;3407;49.882;10.920;2022-10-31T06:42:35;10.80;93.20
6740;DHT22;3407;49.882;10.920;2022-10-31T06:47:30;10.90;93.20
6740;DHT22;3407;49.882;10.920;2022-10-31T06:52:26;11.00;93.40
6740;DHT22;3407;49.882;10.920;2022-10-31T06:57:22;11.00;93.10
6740;DHT22;3407;49.882;10.920;2022-10-31T07:02:17;11.10;92.90
6740;DHT22;3407;49.882;10.920;2022-10-31T07:07:13;11.20;93.10
6740;DHT22;3407;49.882;10.920;2022-10-31T07:12:08;11.30;93.20
6740;DHT22;3407;49.882;10.920;2022-10-31T07:17:04;11.30;92.50
6740;DHT22;3407;49.882;10.920;2022-10-31T07:21:59;11.40;91.90
6740;DHT22;3407;49.882;10.920;2022-10-31T07:26:55;11.50;91.70
6740;DHT22;3407;49.882;10.920;2022-10-31T07:31:50;11.50;90.90
6740;DHT22;3407;49.882;10.920;2022-10-31T07:36:46;11.60;91.50
6740;DHT22;3407;49.882;10.920;2022-10-31T07:41:42;11.70;90.50
6740;DHT22;3407;49.882;10.920;2022-10-31T07:46:37;11.80;89.60
6740;DHT22;3407;49.882;10.920;2022-10-31T07:51:33;11.90;89.80
6740;DHT22;3407;49.882;10.920;2022-10-31T07:56:28;12.00;88.70
6740;DHT22;3407;49.882;10.920;2022-10-31T08:01:24;12.10;87.40
6740;DHT22;3407;49.882;10.920;2022-10-31T08:06:19;12.10;80.80
6740;DHT22;3407;49.882;10.920;2022-10-31T08:11:15;12.10;78.70
6740;DHT22;3407;49.882;10.920;2022-10-31T08:16:10;12.00;66.60
6740;DHT22;3407;49.882;10.920;2022-10-31T08:21:06;11.90;65.10
6740;DHT22;3407;49.882;10.920;2022-10-31T08:26:01;12.00;69.60
6740;DHT22;3407;49.882;10.920;2022-10-31T08:30:57;12.20;70.40
6740;DHT22;3407;49.882;10.920;2022-10-31T08:35:53;12.40;67.80
6740;DHT22;3407;49.882;10.920;2022-10-31T08:40:49;12.50;57.20
6740;DHT22;3407;49.882;10.920;2022-10-31T08:45:48;12.60;55.20
6740;DHT22;3407;49.882;10.920;2022-10-31T08:50:45;12.80;54.70
6740;DHT22;3407;49.882;10.920;2022-10-31T08:55:41;12.90;51.50
6740;DHT22;3407;49.882;10.920;2022-10-31T09:00:37;13.00;43.50
6740;DHT22;3407;49.882;10.920;2022-10-31T09:05:33;13.10;37.20
6740;DHT22;3407;49.882;10.920;2022-10-31T09:10:30;13.20;31.90
6740;DHT22;3407;49.882;10.920;2022-10-31T09:15:28;13.10;30.20
6740;DHT22;3407;49.882;10.920;2022-10-31T09:20:24;13.10;17.70
6740;DHT22;3407;49.882;10.920;2022-10-31T09:25:19;13.20;25.90
6740;DHT22;3407;49.882;10.920;2022-10-31T09:30:15;13.40;23.50
6740;DHT22;3407;49.882;10.920;2022-10-31T09:35:11;13.40;17.70
6740;DHT22;3407;49.882;10.920;2022-10-31T09:40:06;13.60;17.00
6740;DHT22;3407;49.882;10.920;2022-10-31T09:45:11;13.80;14.40
6740;DHT22;3407;49.882;10.920;2022-10-31T09:50:21;13.80;1.00
6740;DHT22;3407;49.882;10.920;2022-10-31T09:55:21;13.80;9.00
6740;DHT22;3407;49.882;10.920;2022-10-31T10:00:21;14.00;1.00
6740;DHT22;3407;49.882;10.920;2022-10-31T10:05:23;14.00;1.00
6740;DHT22;3407;49.882;10.920;2022-10-31T10:10:27;14.10;1.00
6740;DHT22;3407;49.882;10.920;2022-10-31T10:15:34;14.40;1.00
6740;DHT22;3407;49.882;10.920;2022-10-31T10:20:55;14.60;1.00
6740;DHT22;3407;49.882;10.920;2022-10-31T10:26:02;14.60;1.00
6740;DHT22;3407;49.882;10.920;2022-10-31T10:36:22;14.30;1.00
6740;DHT22;3407;49.882;10.920;2022-10-31T10:41:23;14.40;1.00
6740;DHT22;3407;49.882;10.920;2022-10-31T10:52:16;14.90;1.00
6740;DHT22;3407;49.882;10.920;2022-10-31T10:57:27;15.20;1.00
6740;DHT22;3407;49.882;10.920;2022-10-31T11:02:29;15.30;1.00
6740;DHT22;3407;49.882;10.920;2022-10-31T11:07:37;15.20;1.00
6740;DHT22;3407;49.882;10.920;2022-10-31T11:12:33;15.20;1.00
6740;DHT22;3407;49.882;10.920;2022-10-31T11:17:36;15.40;1.00
6740;DHT22;3407;49.882;10.920;2022-10-31T11:22:32;15.70;1.00
6740;DHT22;3407;49.882;10.920;2022-10-31T11:27:27;15.90;1.00
6740;DHT22;3407;49.882;10.920;2022-10-31T11:32:27;16.20;1.00
6740;DHT22;3407;49.882;10.920;2022-10-31T11:37:25;16.60;1.00
6740;DHT22;3407;49.882;10.920;2022-10-31T11:42:24;17.00;1.00
6740;DHT22;3407;49.882;10.920;2022-10-31T11:47:26;17.20;99.90
6740;DHT22;3407;49.882;10.920;2022-10-31T11:52:28;17.30;90.30
6740;DHT22;3407;49.882;10.920;2022-10-31T11:57:33;17.40;99.90
6740;DHT22;3407;49.882;10.920;2022-10-31T12:02:29;17.50;91.50
6740;DHT22;3407;49.882;10.920;2022-10-31T12:07:24;17.30;1.00
6740;DHT22;3407;49.882;10.920;2022-10-31T12:17:26;17.20;1.00
6740;DHT22;3407;49.882;10.920;2022-10-31T12:32:29;17.50;99.90
6740;DHT22;3407;49.882;10.920;2022-10-31T12:37:52;17.40;1.00
6740;DHT22;3407;49.882;10.920;2022-10-31T12:48:37;17.30;36.70
6740;DHT22;3407;49.882;10.920;2022-10-31T12:58:51;17.70;1.00
6740;DHT22;3407;49.882;10.920;2022-10-31T13:08:57;17.80;99.90
6740;DHT22;3407;49.882;10.920;2022-10-31T13:14:35;17.90;70.10
6740;DHT22;3407;49.882;10.920;2022-10-31T13:19:43;17.90;99.90
6740;DHT22;3407;49.882;10.920;2022-10-31T13:35:16;17.60;99.90
6740;DHT22;3407;49.882;10.920;2022-10-31T13:40:34;17.50;99.90
6740;DHT22;3407;49.882;10.920;2022-10-31T13:45:30;17.40;99.90
6740;DHT22;3407;49.882;10.920;2022-10-31T13:50:31;17.30;1.00
6740;DHT22;3407;49.882;10.920;2022-10-31T13:55:44;17.20;1.00
6740;DHT22;3407;49.882;10.920;2022-10-31T14:00:40;17.10;1.00
6740;DHT22;3407;49.882;10.920;2022-10-31T14:05:36;17.00;1.00
6740;DHT22;3407;49.882;10.920;2022-10-31T14:10:35;16.90;1.00
6740;DHT22;3407;49.882;10.920;2022-10-31T14:15:31;16.90;1.00
6740;DHT22;3407;49.882;10.920;2022-10-31T14:20:37;16.80;1.00
6740;DHT22;3407;49.882;10.920;2022-10-31T14:25:34;16.70;1.00
6740;DHT22;3407;49.882;10.920;2022-10-31T14:30:30;16.70;1.00
6740;DHT22;3407;49.882;10.920;2022-10-31T14:41:02;16.50;1.00
6740;DHT22;3407;49.882;10.920;2022-10-31T14:46:32;16.40;1.00
6740;DHT22;3407;49.882;10.920;2022-10-31T14:51:44;16.30;1.00
6740;DHT22;3407;49.882;10.920;2022-10-31T14:56:50;16.20;1.00
6740;DHT22;3407;49.882;10.920;2022-10-31T15:02:00;16.10;1.00
6740;DHT22;3407;49.882;10.920;2022-10-31T15:07:21;15.90;1.00
6740;DHT22;3407;49.882;10.920;2022-10-31T15:12:28;15.80;1.00
6740;DHT22;3407;49.882;10.920;2022-10-31T15:17:25;15.60;1.00
6740;DHT22;3407;49.882;10.920;2022-10-31T15:22:23;15.50;7.60
6740;DHT22;3407;49.882;10.920;2022-10-31T15:27:19;15.30;16.00
6740;DHT22;3407;49.882;10.920;2022-10-31T15:32:26;15.20;22.70
6740;DHT22;3407;49.882;10.920;2022-10-31T15:37:23;15.10;29.10
6740;DHT22;3407;49.882;10.920;2022-10-31T15:42:30;15.00;35.60
6740;DHT22;3407;49.882;10.920;2022-10-31T15:47:29;14.90;38.40
6740;DHT22;3407;49.882;10.920;2022-10-31T15:52:40;14.70;42.40
6740;DHT22;3407;49.882;10.920;2022-10-31T15:57:42;14.60;45.10
6740;DHT22;3407;49.882;10.920;2022-10-31T16:02:39;14.50;48.90
6740;DHT22;3407;49.882;10.920;2022-10-31T16:07:34;14.30;51.80
6740;DHT22;3407;49.882;10.920;2022-10-31T16:12:44;14.20;54.40
6740;DHT22;3407;49.882;10.920;2022-10-31T16:17:41;14.00;56.80
6740;DHT22;3407;49.882;10.920;2022-10-31T16:22:38;14.00;66.90
6740;DHT22;3407;49.882;10.920;2022-10-31T16:27:35;13.90;71.60
6740;DHT22;3407;49.882;10.920;2022-10-31T16:32:36;13.90;73.60
6740;DHT22;3407;49.882;10.920;2022-10-31T16:37:32;13.80;74.30
6740;DHT22;3407;49.882;10.920;2022-10-31T16:42:28;13.70;74.90
6740;DHT22;3407;49.882;10.920;2022-10-31T16:47:23;13.60;75.40
6740;DHT22;3407;49.882;10.920;2022-10-31T16:52:19;13.50;75.70
6740;DHT22;3407;49.882;10.920;2022-10-31T16:57:17;13.50;78.40
6740;DHT22;3407;49.882;10.920;2022-10-31T17:02:15;13.40;80.30
6740;DHT22;3407;49.882;10.920;2022-10-31T17:07:11;13.30;81.30
6740;DHT22;3407;49.882;10.920;2022-10-31T17:12:16;13.20;81.40
6740;DHT22;3407;49.882;10.920;2022-10-31T17:17:19;13.00;80.80
6740;DHT22;3407;49.882;10.920;2022-10-31T17:22:15;12.90;80.60
6740;DHT22;3407;49.882;10.920;2022-10-31T17:27:10;12.70;80.70
6740;DHT22;3407;49.882;10.920;2022-10-31T17:32:06;12.60;82.60
6740;DHT22;3407;49.882;10.920;2022-10-31T17:37:01;12.60;84.30
6740;DHT22;3407;49.882;10.920;2022-10-31T17:41:57;12.50;83.80
6740;DHT22;3407;49.882;10.920;2022-10-31T17:46:53;12.40;84.20
6740;DHT22;3407;49.882;10.920;2022-10-31T17:51:48;12.40;86.00
6740;DHT22;3407;49.882;10.920;2022-10-31T17:56:44;12.30;86.80
6740;DHT22;3407;49.882;10.920;2022-10-31T18:01:40;12.30;87.40
6740;DHT22;3407;49.882;10.920;2022-10-31T18:06:35;12.20;86.20
6740;DHT22;3407;49.882;10.920;2022-10-31T18:11:34;12.10;86.80
6740;DHT22;3407;49.882;10.920;2022-10-31T18:16:32;12.00;86.50
6740;DHT22;3407;49.882;10.920;2022-10-31T18:21:28;12.00;87.40
6740;DHT22;3407;49.882;10.920;2022-10-31T18:26:25;11.90;86.80
6740;DHT22;3407;49.882;10.920;2022-10-31T18:31:21;11.90;86.70
6740;DHT22;3407;49.882;10.920;2022-10-31T18:36:17;11.80;86.00
6740;DHT22;3407;49.882;10.920;2022-10-31T18:41:14;11.70;86.90
6740;DHT22;3407;49.882;10.920;2022-10-31T18:46:14;11.70;88.70
6740;DHT22;3407;49.882;10.920;2022-10-31T18:51:12;11.70;89.30
6740;DHT22;3407;49.882;10.920;2022-10-31T18:56:15;11.80;89.10
6740;DHT22;3407;49.882;10.920;2022-10-31T19:01:19;11.70;89.50
6740;DHT22;3407;49.882;10.920;2022-10-31T19:06:17;11.70;90.20
6740;DHT22;3407;49.882;10.920;2022-10-31T19:11:14;11.70;90.70
6740;DHT22;3407;49.882;10.920;2022-10-31T19:16:12;11.60;90.80
6740;DHT22;3407;49.882;10.920;2022-10-31T19:21:10;11.50;90.80
6740;DHT22;3407;49.882;10.920;2022-10-31T19:26:07;11.40;91.10
6740;DHT22;3407;49.882;10.920;2022-10-31T19:31:03;11.40;91.00
6740;DHT22;3407;49.882;10.920;2022-10-31T19:36:05;11.30;90.50
6740;DHT22;3407;49.882;10.920;2022-10-31T19:41:09;11.20;90.20
6740;DHT22;3407;49.882;10.920;2022-10-31T19:46:06;11.10;89.90
6740;DHT22;3407;49.882;10.920;2022-10-31T19:51:10;11.10;90.80
6740;DHT22;3407;49.882;10.920;2022-10-31T19:56:20;11.10;91.00
6740;DHT22;3407;49.882;10.920;2022-10-31T20:01:22;11.20;91.50
6740;DHT22;3407;49.882;10.920;2022-10-31T20:06:39;11.10;91.00
6740;DHT22;3407;49.882;10.920;2022-10-31T20:11:36;11.00;90.70
6740;DHT22;3407;49.882;10.920;2022-10-31T20:16:32;11.00;90.90
6740;DHT22;3407;49.882;10.920;2022-10-31T20:21:29;11.00;91.70
6740;DHT22;3407;49.882;10.920;2022-10-31T20:26:26;11.00;92.30
6740;DHT22;3407;49.882;10.920;2022-10-31T20:31:31;11.00;92.60
6740;DHT22;3407;49.882;10.920;2022-10-31T20:36:27;11.00;92.20
6740;DHT22;3407;49.882;10.920;2022-10-31T20:41:28;11.00;92.00
6740;DHT22;3407;49.882;10.920;2022-10-31T20:46:25;11.00;92.40
6740;DHT22;3407;49.882;10.920;2022-10-31T20:51:24;11.10;93.00
6740;DHT22;3407;49.882;10.920;2022-10-31T20:56:22;11.10;92.50
6740;DHT22;3407;49.882;10.920;2022-10-31T21:01:20;11.10;92.10
6740;DHT22;3407;49.882;10.920;2022-10-31T21:06:17;11.10;92.20
6740;DHT22;3407;49.882;10.920;2022-10-31T21:11:26;11.00;91.60
6740;DHT22;3407;49.882;10.920;2022-10-31T21:16:25;11.00;91.60
6740;DHT22;3407;49.882;10.920;2022-10-31T21:21:27;11.00;91.80
6740;DHT22;3407;49.882;10.920;2022-10-31T21:26:28;10.90;90.60
6740;DHT22;3407;49.882;10.920;2022-10-31T21:31:26;10.70;88.60
6740;DHT22;3407;49.882;10.920;2022-10-31T21:36:25;10.70;90.10
6740;DHT22;3407;49.882;10.920;2022-10-31T21:41:21;10.60;90.00
6740;DHT22;3407;49.882;10.920;2022-10-31T21:46:20;10.40;88.30
6740;DHT22;3407;49.882;10.920;2022-10-31T21:51:21;10.20;85.70
6740;DHT22;3407;49.882;10.920;2022-10-31T21:56:19;10.20;89.20
6740;DHT22;3407;49.882;10.920;2022-10-31T22:01:15;10.20;88.10
6740;DHT22;3407;49.882;10.920;2022-10-31T22:06:15;10.10;89.30
6740;DHT22;3407;49.882;10.920;2022-10-31T22:11:16;10.10;90.30
6740;DHT22;3407;49.882;10.920;2022-10-31T22:16:15;10.20;91.40
6740;DHT22;3407;49.882;10.920;2022-10-31T22:21:16;10.30;91.70
6740;DHT22;3407;49.882;10.920;2022-10-31T22:26:17;10.20;90.60
6740;DHT22;3407;49.882;10.920;2022-10-31T22:31:14;10.20;90.20
6740;DHT22;3407;49.882;10.920;2022-10-31T22:36:14;10.10;90.00
6740;DHT22;3407;49.882;10.920;2022-10-31T22:41:14;10.10;90.10
6740;DHT22;3407;49.882;10.920;2022-10-31T22:46:15;10.10;89.70
6740;DHT22;3407;49.882;10.920;2022-10-31T22:51:20;10.10;90.00
6740;DHT22;3407;49.882;10.920;2022-10-31T22:56:20;10.10;90.20
6740;DHT22;3407;49.882;10.920;2022-10-31T23:01:20;10.10;90.30
6740;DHT22;3407;49.882;10.920;2022-10-31T23:06:18;10.10;89.30
6740;DHT22;3407;49.882;10.920;2022-10-31T23:16:17;9.90;86.10
6740;DHT22;3407;49.882;10.920;2022-10-31T23:21:13;9.80;84.90
6740;DHT22;3407;49.882;10.920;2022-10-31T23:26:26;9.70;85.00
6740;DHT22;3407;49.882;10.920;2022-10-31T23:31:41;9.60;81.80
6740;DHT22;3407;49.882;10.920;2022-10-31T23:36:36;9.50;81.70
6740;DHT22;3407;49.882;10.920;2022-10-31T23:41:32;9.50;82.10
6740;DHT22;3407;49.882;10.920;2022-10-31T23:46:27;9.50;79.90
6740;DHT22;3407;49.882;10.920;2022-10-31T23:51:23;9.40;77.60
6740;DHT22;3407;49.882;10.920;2022-10-31T23:56:19;9.40;77.70
